sensor_id;sensor_type;location;lat;lon;timestamp;pressure;altitude;pressure_sealevel;temperature;humidity
34454;BME280;60061;52.080;5.312;2022-12-13T00:01:17;101247.0;;;-4.35;97.58
34454;BME280;60061;52.080;5.312;2022-12-13T00:02:54;101239.0;;;-4.38;96.92
34454;BME280;60061;52.080;5.312;2022-12-13T00:06:07;101242.0;;;-4.4;97.47
34454;BME280;60061;52.080;5.312;2022-12-13T00:07:45;101238.0;;;-4.42;99.81
34454;BME280;60061;52.080;5.312;2022-12-13T00:09:21;101240.0;;;-4.43;100.0
34454;BME280;60061;52.080;5.312;2022-12-13T00:10:58;101235.0;;;-4.4;99.81
34454;BME280;60061;52.080;5.312;2022-12-13T00:14:13;101240.0;;;-4.47;100.0
34454;BME280;60061;52.080;5.312;2022-12-13T00:15:55;101234.0;;;-4.46;100.0
34454;BME280;60061;52.080;5.312;2022-12-13T00:17:31;101234.0;;;-4.38;100.0
34454;BME280;60061;52.080;5.312;2022-12-13T00:20:43;101232.0;;;-4.38;100.0
34454;BME280;60061;52.080;5.312;2022-12-13T00:22:19;101223.0;;;-4.34;99.53
34454;BME280;60061;52.080;5.312;2022-12-13T00:23:57;101230.0;;;-4.25;99.16
34454;BME280;60061;52.080;5.312;2022-12-13T00:25:34;101230.0;;;-4.28;98.68
34454;BME280;60061;52.080;5.312;2022-12-13T00:28:48;101225.0;;;-4.28;99.36
34454;BME280;60061;52.080;5.312;2022-12-13T00:30:30;101224.0;;;-4.28;100.0
34454;BME280;60061;52.080;5.312;2022-12-13T00:32:07;101233.0;;;-4.31;99.88
34454;BME280;60061;52.080;5.312;2022-12-13T00:35:20;101226.0;;;-4.35;100.0
34454;BME280;60061;52.080;5.312;2022-12-13T00:36:58;101227.0;;;-4.43;100.0
34454;BME280;60061;52.080;5.312;2022-12-13T00:38:35;101220.0;;;-4.38;100.0
34454;BME280;60061;52.080;5.312;2022-12-13T00:40:13;101218.0;;;-4.38;100.0
34454;BME280;60061;52.080;5.312;2022-12-13T00:43:26;101214.0;;;-4.37;100.0
34454;BME280;60061;52.080;5.312;2022-12-13T00:45:04;101215.0;;;-4.36;98.64
34454;BME280;60061;52.080;5.312;2022-12-13T00:46:41;101215.0;;;-4.41;98.6
34454;BME280;60061;52.080;5.312;2022-12-13T00:49:54;101212.0;;;-4.47;100.0
34454;BME280;60061;52.080;5.312;2022-12-13T00:51:32;101211.0;;;-4.43;100.0
34454;BME280;60061;52.080;5.312;2022-12-13T00:53:09;101211.0;;;-4.44;99.84
34454;BME280;60061;52.080;5.312;2022-12-13T00:56:24;101210.0;;;-4.46;99.59
34454;BME280;60061;52.080;5.312;2022-12-13T00:58:04;101207.0;;;-4.47;99.86
34454;BME280;60061;52.080;5.312;2022-12-13T01:06:11;101205.0;;;-4.53;97.92
34454;BME280;60061;52.080;5.312;2022-12-13T01:07:47;101207.0;;;-4.47;97.91
34454;BME280;60061;52.080;5.312;2022-12-13T01:11:03;101211.0;;;-4.41;98.47
34454;BME280;60061;52.080;5.312;2022-12-13T01:12:42;101215.0;;;-4.38;98.3
34454;BME280;60061;52.080;5.312;2022-12-13T01:14:18;101211.0;;;-4.41;98.15
34454;BME280;60061;52.080;5.312;2022-12-13T01:15:54;101211.0;;;-4.36;97.41
34454;BME280;60061;52.080;5.312;2022-12-13T01:19:09;101214.0;;;-4.34;96.66
34454;BME280;60061;52.080;5.312;2022-12-13T01:20:56;101214.0;;;-4.41;96.95
34454;BME280;60061;52.080;5.312;2022-12-13T01:22:32;101214.0;;;-4.5;100.0
34454;BME280;60061;52.080;5.312;2022-12-13T01:24:09;101205.0;;;-4.58;100.0
34454;BME280;60061;52.080;5.312;2022-12-13T01:27:22;101205.0;;;-4.52;100.0
34454;BME280;60061;52.080;5.312;2022-12-13T01:28:58;101198.0;;;-4.56;100.0
34454;BME280;60061;52.080;5.312;2022-12-13T01:30:34;101201.0;;;-4.56;100.0
34454;BME280;60061;52.080;5.312;2022-12-13T01:33:48;101202.0;;;-4.55;100.0
34454;BME280;60061;52.080;5.312;2022-12-13T01:35:25;101205.0;;;-4.56;100.0
34454;BME280;60061;52.080;5.312;2022-12-13T01:37:01;101200.0;;;-4.58;99.54
34454;BME280;60061;52.080;5.312;2022-12-13T01:40:13;101205.0;;;-4.6;99.19
34454;BME280;60061;52.080;5.312;2022-12-13T01:41:51;101205.0;;;-4.59;98.56
34454;BME280;60061;52.080;5.312;2022-12-13T01:43:50;101197.0;;;-4.63;100.0
34454;BME280;60061;52.080;5.312;2022-12-13T01:45:32;101205.0;;;-4.61;99.82
34454;BME280;60061;52.080;5.312;2022-12-13T01:47:09;101199.0;;;-4.63;99.96
34454;BME280;60061;52.080;5.312;2022-12-13T01:50:31;101198.0;;;-4.65;98.67
34454;BME280;60061;52.080;5.312;2022-12-13T01:52:12;101200.0;;;-4.61;98.83
34454;BME280;60061;52.080;5.312;2022-12-13T01:53:50;101198.0;;;-4.57;99.07
34454;BME280;60061;52.080;5.312;2022-12-13T01:57:09;101201.0;;;-4.49;98.37
34454;BME280;60061;52.080;5.312;2022-12-13T01:58:50;101197.0;;;-4.52;97.93
34454;BME280;60061;52.080;5.312;2022-12-13T02:00:29;101200.0;;;-4.56;97.55
34454;BME280;60061;52.080;5.312;2022-12-13T02:02:10;101202.0;;;-4.57;96.95
34454;BME280;60061;52.080;5.312;2022-12-13T02:05:27;101203.0;;;-4.54;96.38
34454;BME280;60061;52.080;5.312;2022-12-13T02:07:07;101199.0;;;-4.56;95.9
34454;BME280;60061;52.080;5.312;2022-12-13T02:08:45;101205.0;;;-4.58;95.21
34454;BME280;60061;52.080;5.312;2022-12-13T02:10:22;101205.0;;;-4.57;94.69
34454;BME280;60061;52.080;5.312;2022-12-13T02:13:36;101198.0;;;-4.63;94.86
34454;BME280;60061;52.080;5.312;2022-12-13T02:15:15;101206.0;;;-4.79;95.56
34454;BME280;60061;52.080;5.312;2022-12-13T02:16:58;101207.0;;;-4.84;95.97
34454;BME280;60061;52.080;5.312;2022-12-13T02:18:49;101200.0;;;-4.94;96.25
34454;BME280;60061;52.080;5.312;2022-12-13T02:23:59;101205.0;;;-4.98;99.07
34454;BME280;60061;52.080;5.312;2022-12-13T02:26:49;101205.0;;;-4.97;98.51
34454;BME280;60061;52.080;5.312;2022-12-13T02:28:48;101206.0;;;-4.9;97.18
34454;BME280;60061;52.080;5.312;2022-12-13T02:30:37;101209.0;;;-4.84;95.54
34454;BME280;60061;52.080;5.312;2022-12-13T02:32:22;101205.0;;;-4.91;95.01
34454;BME280;60061;52.080;5.312;2022-12-13T02:34:05;101202.0;;;-5.0;97.98
34454;BME280;60061;52.080;5.312;2022-12-13T02:35:50;101197.0;;;-5.07;100.0
34454;BME280;60061;52.080;5.312;2022-12-13T02:37:34;101197.0;;;-5.06;100.0
34454;BME280;60061;52.080;5.312;2022-12-13T02:41:05;101195.0;;;-4.88;100.0
34454;BME280;60061;52.080;5.312;2022-12-13T02:44:35;101186.0;;;-4.78;99.8
34454;BME280;60061;52.080;5.312;2022-12-13T02:46:17;101181.0;;;-4.86;100.0
34454;BME280;60061;52.080;5.312;2022-12-13T02:47:56;101181.0;;;-4.86;100.0
34454;BME280;60061;52.080;5.312;2022-12-13T02:51:18;101181.0;;;-4.86;98.7
34454;BME280;60061;52.080;5.312;2022-12-13T02:52:55;101182.0;;;-4.86;98.5
34454;BME280;60061;52.080;5.312;2022-12-13T02:54:33;101180.0;;;-4.88;98.24
34454;BME280;60061;52.080;5.312;2022-12-13T02:57:48;101183.0;;;-4.94;98.8
34454;BME280;60061;52.080;5.312;2022-12-13T02:59:28;101184.0;;;-4.96;99.95
34454;BME280;60061;52.080;5.312;2022-12-13T03:01:18;101180.0;;;-4.96;99.01
34454;BME280;60061;52.080;5.312;2022-12-13T03:03:32;101182.0;;;-4.96;97.61
34454;BME280;60061;52.080;5.312;2022-12-13T03:06:38;101183.0;;;-5.0;98.06
34454;BME280;60061;52.080;5.312;2022-12-13T03:08:23;101185.0;;;-5.02;98.27
34454;BME280;60061;52.080;5.312;2022-12-13T03:10:05;101180.0;;;-5.06;98.8
34454;BME280;60061;52.080;5.312;2022-12-13T03:14:09;101173.0;;;-5.1;100.0
34454;BME280;60061;52.080;5.312;2022-12-13T03:15:52;101170.0;;;-5.13;97.09
34454;BME280;60061;52.080;5.312;2022-12-13T03:17:36;101176.0;;;-5.14;96.76
34454;BME280;60061;52.080;5.312;2022-12-13T03:19:17;101180.0;;;-5.15;96.82
34454;BME280;60061;52.080;5.312;2022-12-13T03:22:35;101180.0;;;-5.19;99.02
34454;BME280;60061;52.080;5.312;2022-12-13T03:24:12;101173.0;;;-5.15;98.14
34454;BME280;60061;52.080;5.312;2022-12-13T03:25:51;101175.0;;;-5.13;97.11
34454;BME280;60061;52.080;5.312;2022-12-13T03:29:08;101175.0;;;-5.04;97.3
34454;BME280;60061;52.080;5.312;2022-12-13T03:30:44;101174.0;;;-5.07;96.98
34454;BME280;60061;52.080;5.312;2022-12-13T03:32:20;101173.0;;;-5.11;96.82
34454;BME280;60061;52.080;5.312;2022-12-13T03:33:57;101172.0;;;-5.04;96.28
34454;BME280;60061;52.080;5.312;2022-12-13T03:37:11;101178.0;;;-5.09;95.96
34454;BME280;60061;52.080;5.312;2022-12-13T03:38:48;101173.0;;;-5.19;98.21
34454;BME280;60061;52.080;5.312;2022-12-13T03:40:27;101173.0;;;-5.16;97.34
34454;BME280;60061;52.080;5.312;2022-12-13T03:43:41;101169.0;;;-5.19;97.95
34454;BME280;60061;52.080;5.312;2022-12-13T03:45:20;101176.0;;;-5.22;97.64
34454;BME280;60061;52.080;5.312;2022-12-13T03:46:56;101176.0;;;-5.29;96.95
34454;BME280;60061;52.080;5.312;2022-12-13T03:48:32;101172.0;;;-5.27;96.29
34454;BME280;60061;52.080;5.312;2022-12-13T03:51:45;101173.0;;;-5.29;95.87
34454;BME280;60061;52.080;5.312;2022-12-13T03:53:22;101176.0;;;-5.24;94.97
34454;BME280;60061;52.080;5.312;2022-12-13T03:54:59;101177.0;;;-5.31;95.41
34454;BME280;60061;52.080;5.312;2022-12-13T03:58:13;101180.0;;;-5.36;95.46
34454;BME280;60061;52.080;5.312;2022-12-13T03:59:50;101182.0;;;-5.38;95.36
34454;BME280;60061;52.080;5.312;2022-12-13T04:01:26;101176.0;;;-5.32;94.94
34454;BME280;60061;52.080;5.312;2022-12-13T04:04:39;101181.0;;;-5.46;94.06
34454;BME280;60061;52.080;5.312;2022-12-13T04:06:16;101180.0;;;-5.46;94.69
34454;BME280;60061;52.080;5.312;2022-12-13T04:07:53;101174.0;;;-5.59;94.91
34454;BME280;60061;52.080;5.312;2022-12-13T04:09:29;101166.0;;;-5.54;96.06
34454;BME280;60061;52.080;5.312;2022-12-13T04:15:08;101170.0;;;-5.33;96.94
34454;BME280;60061;52.080;5.312;2022-12-13T04:16:44;101165.0;;;-5.36;96.34
34454;BME280;60061;52.080;5.312;2022-12-13T04:18:21;101174.0;;;-5.36;97.7
34454;BME280;60061;52.080;5.312;2022-12-13T04:19:57;101176.0;;;-5.39;98.21
34454;BME280;60061;52.080;5.312;2022-12-13T04:23:10;101176.0;;;-5.37;97.46
34454;BME280;60061;52.080;5.312;2022-12-13T04:24:46;101178.0;;;-5.42;96.12
34454;BME280;60061;52.080;5.312;2022-12-13T04:26:22;101174.0;;;-5.47;94.82
34454;BME280;60061;52.080;5.312;2022-12-13T04:29:34;101166.0;;;-5.49;94.03
34454;BME280;60061;52.080;5.312;2022-12-13T04:31:10;101168.0;;;-5.56;95.1
34454;BME280;60061;52.080;5.312;2022-12-13T04:32:46;101166.0;;;-5.63;97.66
34454;BME280;60061;52.080;5.312;2022-12-13T04:35:59;101160.0;;;-5.67;98.08
34454;BME280;60061;52.080;5.312;2022-12-13T04:37:35;101161.0;;;-5.69;96.26
34454;BME280;60061;52.080;5.312;2022-12-13T04:39:11;101162.0;;;-5.68;94.4
34454;BME280;60061;52.080;5.312;2022-12-13T04:40:47;101156.0;;;-5.6;93.17
34454;BME280;60061;52.080;5.312;2022-12-13T04:44:00;101152.0;;;-5.76;93.4
34454;BME280;60061;52.080;5.312;2022-12-13T04:45:37;101156.0;;;-5.86;98.75
34454;BME280;60061;52.080;5.312;2022-12-13T04:47:13;101149.0;;;-5.85;97.21
34454;BME280;60061;52.080;5.312;2022-12-13T04:50:26;101151.0;;;-5.83;95.26
34454;BME280;60061;52.080;5.312;2022-12-13T04:52:02;101153.0;;;-5.84;94.37
34454;BME280;60061;52.080;5.312;2022-12-13T04:53:39;101149.0;;;-5.8;93.4
34454;BME280;60061;52.080;5.312;2022-12-13T04:56:52;101145.0;;;-5.9;93.41
34454;BME280;60061;52.080;5.312;2022-12-13T04:58:28;101151.0;;;-5.96;95.17
34454;BME280;60061;52.080;5.312;2022-12-13T05:00:06;101148.0;;;-5.99;95.82
34454;BME280;60061;52.080;5.312;2022-12-13T05:01:44;101150.0;;;-5.97;99.22
34454;BME280;60061;52.080;5.312;2022-12-13T05:04:59;101141.0;;;-5.97;97.17
34454;BME280;60061;52.080;5.312;2022-12-13T05:06:37;101136.0;;;-5.98;99.25
34454;BME280;60061;52.080;5.312;2022-12-13T05:08:14;101135.0;;;-5.99;96.45
34454;BME280;60061;52.080;5.312;2022-12-13T05:11:27;101128.0;;;-5.97;98.64
34454;BME280;60061;52.080;5.312;2022-12-13T05:13:04;101130.0;;;-5.99;97.78
34454;BME280;60061;52.080;5.312;2022-12-13T05:14:41;101131.0;;;-5.95;95.03
34454;BME280;60061;52.080;5.312;2022-12-13T05:17:53;101127.0;;;-5.94;94.81
34454;BME280;60061;52.080;5.312;2022-12-13T05:19:29;101125.0;;;-5.97;94.18
34454;BME280;60061;52.080;5.312;2022-12-13T05:21:08;101131.0;;;-5.9;93.1
34454;BME280;60061;52.080;5.312;2022-12-13T05:22:45;101133.0;;;-5.98;93.03
34454;BME280;60061;52.080;5.312;2022-12-13T05:25:58;101135.0;;;-6.0;92.79
34454;BME280;60061;52.080;5.312;2022-12-13T05:27:36;101135.0;;;-6.05;92.85
34454;BME280;60061;52.080;5.312;2022-12-13T05:29:13;101134.0;;;-6.08;92.93
34454;BME280;60061;52.080;5.312;2022-12-13T05:32:26;101127.0;;;-6.11;93.56
34454;BME280;60061;52.080;5.312;2022-12-13T05:34:02;101123.0;;;-6.09;93.35
34454;BME280;60061;52.080;5.312;2022-12-13T05:35:38;101121.0;;;-6.13;93.43
34454;BME280;60061;52.080;5.312;2022-12-13T05:38:51;101128.0;;;-6.14;93.76
34454;BME280;60061;52.080;5.312;2022-12-13T05:40:30;101118.0;;;-6.15;93.87
34454;BME280;60061;52.080;5.312;2022-12-13T05:42:07;101123.0;;;-6.15;94.83
34454;BME280;60061;52.080;5.312;2022-12-13T05:43:43;101123.0;;;-6.13;95.31
34454;BME280;60061;52.080;5.312;2022-12-13T05:46:57;101121.0;;;-6.1;94.93
34454;BME280;60061;52.080;5.312;2022-12-13T05:48:34;101123.0;;;-6.1;94.79
34454;BME280;60061;52.080;5.312;2022-12-13T05:50:11;101124.0;;;-6.03;93.28
34454;BME280;60061;52.080;5.312;2022-12-13T05:53:25;101117.0;;;-6.01;92.57
34454;BME280;60061;52.080;5.312;2022-12-13T05:55:01;101121.0;;;-5.91;92.18
34454;BME280;60061;52.080;5.312;2022-12-13T05:56:37;101121.0;;;-6.03;92.33
34454;BME280;60061;52.080;5.312;2022-12-13T05:58:15;101121.0;;;-6.13;93.13
34454;BME280;60061;52.080;5.312;2022-12-13T06:01:28;101120.0;;;-6.12;93.64
34454;BME280;60061;52.080;5.312;2022-12-13T06:03:04;101123.0;;;-6.17;93.52
34454;BME280;60061;52.080;5.312;2022-12-13T06:04:40;101123.0;;;-6.15;94.88
34454;BME280;60061;52.080;5.312;2022-12-13T06:09:31;101132.0;;;-6.07;95.62
34454;BME280;60061;52.080;5.312;2022-12-13T06:11:08;101130.0;;;-6.03;95.17
34454;BME280;60061;52.080;5.312;2022-12-13T06:14:21;101131.0;;;-6.09;94.91
34454;BME280;60061;52.080;5.312;2022-12-13T06:16:00;101125.0;;;-6.14;96.6
34454;BME280;60061;52.080;5.312;2022-12-13T06:17:37;101123.0;;;-6.19;97.22
34454;BME280;60061;52.080;5.312;2022-12-13T06:19:12;101119.0;;;-6.19;97.75
34454;BME280;60061;52.080;5.312;2022-12-13T06:22:32;101114.0;;;-6.19;96.15
34454;BME280;60061;52.080;5.312;2022-12-13T06:24:09;101123.0;;;-6.21;95.22
34454;BME280;60061;52.080;5.312;2022-12-13T06:25:45;101114.0;;;-6.2;94.96
34454;BME280;60061;52.080;5.312;2022-12-13T06:28:57;101115.0;;;-6.19;99.18
34454;BME280;60061;52.080;5.312;2022-12-13T06:30:34;101112.0;;;-6.21;96.89
34454;BME280;60061;52.080;5.312;2022-12-13T06:32:11;101116.0;;;-6.23;94.96
34454;BME280;60061;52.080;5.312;2022-12-13T06:33:47;101118.0;;;-6.23;94.22
34454;BME280;60061;52.080;5.312;2022-12-13T06:37:02;101114.0;;;-6.23;93.4
34454;BME280;60061;52.080;5.312;2022-12-13T06:38:40;101115.0;;;-6.26;93.07
34454;BME280;60061;52.080;5.312;2022-12-13T06:40:17;101113.0;;;-6.26;93.26
34454;BME280;60061;52.080;5.312;2022-12-13T06:43:30;101112.0;;;-6.3;92.66
34454;BME280;60061;52.080;5.312;2022-12-13T06:45:06;101112.0;;;-6.33;95.65
34454;BME280;60061;52.080;5.312;2022-12-13T06:46:43;101113.0;;;-6.34;94.76
34454;BME280;60061;52.080;5.312;2022-12-13T06:49:56;101110.0;;;-6.34;94.92
34454;BME280;60061;52.080;5.312;2022-12-13T06:51:32;101112.0;;;-6.35;96.43
34454;BME280;60061;52.080;5.312;2022-12-13T06:53:09;101113.0;;;-6.35;96.33
34454;BME280;60061;52.080;5.312;2022-12-13T06:54:45;101116.0;;;-6.33;94.68
34454;BME280;60061;52.080;5.312;2022-12-13T06:57:58;101112.0;;;-6.26;97.75
34454;BME280;60061;52.080;5.312;2022-12-13T06:59:34;101116.0;;;-6.07;98.27
34454;BME280;60061;52.080;5.312;2022-12-13T07:01:12;101107.0;;;-6.01;97.31
34454;BME280;60061;52.080;5.312;2022-12-13T07:04:27;101113.0;;;-6.08;96.1
34454;BME280;60061;52.080;5.312;2022-12-13T07:06:06;101123.0;;;-6.13;95.31
34454;BME280;60061;52.080;5.312;2022-12-13T07:07:43;101122.0;;;-6.21;94.58
34454;BME280;60061;52.080;5.312;2022-12-13T07:09:20;101127.0;;;-6.22;97.46
34454;BME280;60061;52.080;5.312;2022-12-13T07:12:33;101126.0;;;-6.27;97.2
34454;BME280;60061;52.080;5.312;2022-12-13T07:14:10;101130.0;;;-6.27;95.57
34454;BME280;60061;52.080;5.312;2022-12-13T07:15:46;101131.0;;;-6.28;94.81
34454;BME280;60061;52.080;5.312;2022-12-13T07:18:59;101126.0;;;-6.29;95.46
34454;BME280;60061;52.080;5.312;2022-12-13T07:20:38;101132.0;;;-6.3;94.31
34454;BME280;60061;52.080;5.312;2022-12-13T07:22:14;101127.0;;;-6.31;94.68
34454;BME280;60061;52.080;5.312;2022-12-13T07:25:27;101135.0;;;-6.32;98.52
34454;BME280;60061;52.080;5.312;2022-12-13T07:27:03;101133.0;;;-6.33;100.0
34454;BME280;60061;52.080;5.312;2022-12-13T07:28:39;101134.0;;;-6.34;99.55
34454;BME280;60061;52.080;5.312;2022-12-13T07:30:16;101136.0;;;-6.31;98.37
34454;BME280;60061;52.080;5.312;2022-12-13T07:33:29;101141.0;;;-6.3;96.22
34454;BME280;60061;52.080;5.312;2022-12-13T07:35:07;101138.0;;;-6.33;96.6
34454;BME280;60061;52.080;5.312;2022-12-13T07:36:43;101142.0;;;-6.35;94.76
34454;BME280;60061;52.080;5.312;2022-12-13T07:39:57;101143.0;;;-6.37;94.32
34454;BME280;60061;52.080;5.312;2022-12-13T07:41:34;101146.0;;;-6.39;95.94
34454;BME280;60061;52.080;5.312;2022-12-13T07:43:11;101147.0;;;-6.37;97.39
34454;BME280;60061;52.080;5.312;2022-12-13T07:46:23;101158.0;;;-6.4;96.27
34454;BME280;60061;52.080;5.312;2022-12-13T07:48:03;101157.0;;;-6.41;97.57
34454;BME280;60061;52.080;5.312;2022-12-13T07:49:39;101156.0;;;-6.42;96.38
34454;BME280;60061;52.080;5.312;2022-12-13T07:51:16;101151.0;;;-6.32;96.24
34454;BME280;60061;52.080;5.312;2022-12-13T07:54:28;101153.0;;;-6.25;96.42
34454;BME280;60061;52.080;5.312;2022-12-13T07:56:07;101156.0;;;-6.2;97.76
34454;BME280;60061;52.080;5.312;2022-12-13T07:57:45;101157.0;;;-6.3;98.54
34454;BME280;60061;52.080;5.312;2022-12-13T08:00:59;101153.0;;;-6.35;99.86
34454;BME280;60061;52.080;5.312;2022-12-13T08:02:35;101155.0;;;-6.33;100.0
34454;BME280;60061;52.080;5.312;2022-12-13T08:04:11;101160.0;;;-6.34;98.26
34454;BME280;60061;52.080;5.312;2022-12-13T08:07:24;101161.0;;;-6.33;95.84
34454;BME280;60061;52.080;5.312;2022-12-13T08:09:00;101161.0;;;-6.36;94.68
34454;BME280;60061;52.080;5.312;2022-12-13T08:10:37;101167.0;;;-6.38;94.98
34454;BME280;60061;52.080;5.312;2022-12-13T08:12:13;101171.0;;;-6.39;98.62
34454;BME280;60061;52.080;5.312;2022-12-13T08:15:28;101167.0;;;-6.38;100.0
34454;BME280;60061;52.080;5.312;2022-12-13T08:17:05;101167.0;;;-6.41;100.0
34454;BME280;60061;52.080;5.312;2022-12-13T08:18:43;101167.0;;;-6.37;100.0
34454;BME280;60061;52.080;5.312;2022-12-13T08:21:56;101171.0;;;-6.34;97.71
34454;BME280;60061;52.080;5.312;2022-12-13T08:23:33;101167.0;;;-6.33;98.35
34454;BME280;60061;52.080;5.312;2022-12-13T08:25:10;101161.0;;;-6.31;100.0
34454;BME280;60061;52.080;5.312;2022-12-13T08:26:46;101163.0;;;-6.28;100.0
34454;BME280;60061;52.080;5.312;2022-12-13T08:30:00;101159.0;;;-6.25;100.0
34454;BME280;60061;52.080;5.312;2022-12-13T08:31:36;101159.0;;;-6.26;100.0
34454;BME280;60061;52.080;5.312;2022-12-13T08:33:12;101163.0;;;-6.22;98.99
34454;BME280;60061;52.080;5.312;2022-12-13T08:36:25;101163.0;;;-6.18;100.0
34454;BME280;60061;52.080;5.312;2022-12-13T08:38:02;101159.0;;;-6.19;100.0
34454;BME280;60061;52.080;5.312;2022-12-13T08:39:38;101161.0;;;-6.14;100.0
34454;BME280;60061;52.080;5.312;2022-12-13T08:42:53;101162.0;;;-6.18;98.16
34454;BME280;60061;52.080;5.312;2022-12-13T08:44:30;101178.0;;;-6.13;97.01
34454;BME280;60061;52.080;5.312;2022-12-13T08:46:06;101171.0;;;-6.03;100.0
34454;BME280;60061;52.080;5.312;2022-12-13T08:47:42;101165.0;;;-5.92;100.0
34454;BME280;60061;52.080;5.312;2022-12-13T08:50:59;101168.0;;;-5.89;100.0
34454;BME280;60061;52.080;5.312;2022-12-13T08:52:36;101178.0;;;-5.92;100.0
34454;BME280;60061;52.080;5.312;2022-12-13T08:54:12;101176.0;;;-5.96;99.94
34454;BME280;60061;52.080;5.312;2022-12-13T08:57:24;101175.0;;;-6.0;97.99
34454;BME280;60061;52.080;5.312;2022-12-13T08:59:00;101173.0;;;-5.97;97.48
34454;BME280;60061;52.080;5.312;2022-12-13T09:00:37;101174.0;;;-5.88;100.0
34454;BME280;60061;52.080;5.312;2022-12-13T09:03:50;101176.0;;;-5.81;100.0
34454;BME280;60061;52.080;5.312;2022-12-13T09:05:26;101177.0;;;-5.75;100.0
34454;BME280;60061;52.080;5.312;2022-12-13T09:07:02;101176.0;;;-5.71;100.0
34454;BME280;60061;52.080;5.312;2022-12-13T09:08:39;101174.0;;;-5.66;100.0
34454;BME280;60061;52.080;5.312;2022-12-13T09:11:52;101170.0;;;-5.6;100.0
34454;BME280;60061;52.080;5.312;2022-12-13T09:13:30;101171.0;;;-5.52;100.0
34454;BME280;60061;52.080;5.312;2022-12-13T09:15:08;101173.0;;;-5.47;100.0
34454;BME280;60061;52.080;5.312;2022-12-13T09:18:21;101178.0;;;-5.35;100.0
34454;BME280;60061;52.080;5.312;2022-12-13T09:19:57;101174.0;;;-5.29;100.0
34454;BME280;60061;52.080;5.312;2022-12-13T09:21:34;101180.0;;;-5.3;99.86
34454;BME280;60061;52.080;5.312;2022-12-13T09:24:46;101180.0;;;-5.31;100.0
34454;BME280;60061;52.080;5.312;2022-12-13T09:26:22;101176.0;;;-5.27;100.0
34454;BME280;60061;52.080;5.312;2022-12-13T09:28:00;101180.0;;;-5.19;100.0
34454;BME280;60061;52.080;5.312;2022-12-13T09:29:37;101170.0;;;-5.13;100.0
34454;BME280;60061;52.080;5.312;2022-12-13T09:32:53;101173.0;;;-5.04;100.0
34454;BME280;60061;52.080;5.312;2022-12-13T09:34:32;101173.0;;;-4.88;100.0
34454;BME280;60061;52.080;5.312;2022-12-13T09:36:11;101180.0;;;-4.77;100.0
34454;BME280;60061;52.080;5.312;2022-12-13T09:39:24;101176.0;;;-4.77;100.0
34454;BME280;60061;52.080;5.312;2022-12-13T09:41:11;101175.0;;;-4.77;100.0
34454;BME280;60061;52.080;5.312;2022-12-13T09:42:56;101172.0;;;-4.78;100.0
34454;BME280;60061;52.080;5.312;2022-12-13T09:44:34;101168.0;;;-4.8;100.0
34454;BME280;60061;52.080;5.312;2022-12-13T09:48:04;101170.0;;;-4.82;100.0
34454;BME280;60061;52.080;5.312;2022-12-13T09:49:43;101161.0;;;-4.85;100.0
34454;BME280;60061;52.080;5.312;2022-12-13T09:51:20;101166.0;;;-4.81;100.0
34454;BME280;60061;52.080;5.312;2022-12-13T09:52:58;101163.0;;;-4.74;100.0
34454;BME280;60061;52.080;5.312;2022-12-13T09:56:14;101165.0;;;-4.7;100.0
34454;BME280;60061;52.080;5.312;2022-12-13T09:57:54;101159.0;;;-4.63;100.0
34454;BME280;60061;52.080;5.312;2022-12-13T09:59:33;101152.0;;;-4.62;100.0
34454;BME280;60061;52.080;5.312;2022-12-13T10:01:11;101151.0;;;-4.57;100.0
34454;BME280;60061;52.080;5.312;2022-12-13T10:04:27;101143.0;;;-4.49;100.0
34454;BME280;60061;52.080;5.312;2022-12-13T10:06:14;101138.0;;;-4.41;100.0
34454;BME280;60061;52.080;5.312;2022-12-13T10:07:54;101130.0;;;-4.29;100.0
34454;BME280;60061;52.080;5.312;2022-12-13T10:09:32;101137.0;;;-4.22;100.0
34454;BME280;60061;52.080;5.312;2022-12-13T10:12:53;101139.0;;;-4.2;100.0
34454;BME280;60061;52.080;5.312;2022-12-13T10:14:37;101134.0;;;-4.13;100.0
34454;BME280;60061;52.080;5.312;2022-12-13T10:16:19;101132.0;;;-3.98;100.0
34454;BME280;60061;52.080;5.312;2022-12-13T10:18:15;101131.0;;;-3.81;100.0
34454;BME280;60061;52.080;5.312;2022-12-13T10:19:57;101125.0;;;-3.66;100.0
34454;BME280;60061;52.080;5.312;2022-12-13T10:23:15;101114.0;;;-3.55;100.0
34454;BME280;60061;52.080;5.312;2022-12-13T10:24:53;101111.0;;;-3.47;100.0
34454;BME280;60061;52.080;5.312;2022-12-13T10:26:35;101112.0;;;-3.49;100.0
34454;BME280;60061;52.080;5.312;2022-12-13T10:28:15;101105.0;;;-3.62;100.0
34454;BME280;60061;52.080;5.312;2022-12-13T10:31:43;101112.0;;;-3.63;100.0
34454;BME280;60061;52.080;5.312;2022-12-13T10:33:23;101109.0;;;-3.63;100.0
34454;BME280;60061;52.080;5.312;2022-12-13T10:35:11;101113.0;;;-3.56;100.0
34454;BME280;60061;52.080;5.312;2022-12-13T10:36:55;101105.0;;;-3.52;100.0
34454;BME280;60061;52.080;5.312;2022-12-13T10:38:35;101107.0;;;-3.54;100.0
34454;BME280;60061;52.080;5.312;2022-12-13T10:42:11;101108.0;;;-3.53;100.0
34454;BME280;60061;52.080;5.312;2022-12-13T10:44:14;101102.0;;;-3.28;100.0
34454;BME280;60061;52.080;5.312;2022-12-13T10:45:57;101094.0;;;-3.14;100.0
34454;BME280;60061;52.080;5.312;2022-12-13T10:47:34;101094.0;;;-3.06;100.0
34454;BME280;60061;52.080;5.312;2022-12-13T10:49:15;101088.0;;;-3.01;100.0
34454;BME280;60061;52.080;5.312;2022-12-13T10:52:39;101094.0;;;-2.92;100.0
34454;BME280;60061;52.080;5.312;2022-12-13T10:54:25;101095.0;;;-2.72;100.0
34454;BME280;60061;52.080;5.312;2022-12-13T10:56:08;101094.0;;;-2.67;100.0
34454;BME280;60061;52.080;5.312;2022-12-13T10:57:49;101083.0;;;-2.72;100.0
34454;BME280;60061;52.080;5.312;2022-12-13T11:01:19;101075.0;;;-2.55;100.0
34454;BME280;60061;52.080;5.312;2022-12-13T11:02:58;101082.0;;;-2.39;100.0
34454;BME280;60061;52.080;5.312;2022-12-13T11:04:34;101080.0;;;-2.25;100.0
34454;BME280;60061;52.080;5.312;2022-12-13T11:06:12;101085.0;;;-2.14;100.0
34454;BME280;60061;52.080;5.312;2022-12-13T11:07:50;101090.0;;;-1.91;100.0
34454;BME280;60061;52.080;5.312;2022-12-13T11:11:08;101084.0;;;-1.86;100.0
34454;BME280;60061;52.080;5.312;2022-12-13T11:12:44;101086.0;;;-1.89;100.0
34454;BME280;60061;52.080;5.312;2022-12-13T11:14:23;101080.0;;;-2.04;100.0
34454;BME280;60061;52.080;5.312;2022-12-13T11:17:46;101083.0;;;-1.92;100.0
34454;BME280;60061;52.080;5.312;2022-12-13T11:19:33;101080.0;;;-1.85;100.0
34454;BME280;60061;52.080;5.312;2022-12-13T11:21:22;101078.0;;;-1.88;100.0
34454;BME280;60061;52.080;5.312;2022-12-13T11:23:02;101073.0;;;-1.79;100.0